createdAt,value
2023-03-17T00:01:10.271Z,78.12
2023-03-17T00:03:40.307Z,77.93
2023-03-17T00:06:14.794Z,78.43
2023-03-17T00:08:41.552Z,77.94
2023-03-17T00:11:16.168Z,78.56
2023-03-17T00:13:44.617Z,77.94
2023-03-17T00:16:19.998Z,78.02
2023-03-17T00:18:48.265Z,77.66
2023-03-17T00:21:17.830Z,78.03
2023-03-17T00:23:46.971Z,78.66
2023-03-17T00:26:14.240Z,79.24
2023-03-17T00:28:42.961Z,79.13
2023-03-17T00:31:14.480Z,78.95
2023-03-17T00:33:41.726Z,79.24
2023-03-17T00:36:13.676Z,79.37
2023-03-17T00:38:40.340Z,79.35
2023-03-17T00:41:09.275Z,78.38
2023-03-17T00:43:36.076Z,78.55
2023-03-17T00:46:09.549Z,78.25
2023-03-17T00:48:36.990Z,77.34
2023-03-17T00:51:03.626Z,77.27
2023-03-17T00:53:30.388Z,78.30
2023-03-17T00:55:59.162Z,78.73
2023-03-17T00:58:29.021Z,78.71
2023-03-17T01:00:56.130Z,78.33
2023-03-17T01:03:23.921Z,78.14
2023-03-17T01:05:52.742Z,78.80
2023-03-17T01:08:19.981Z,78.47
2023-03-17T01:10:47.846Z,78.27
2023-03-17T01:13:14.549Z,79.43
2023-03-17T01:15:47.120Z,78.08
2023-03-17T01:18:16.779Z,79.31
2023-03-17T01:20:43.954Z,79.63
2023-03-17T01:23:12.204Z,79.30
2023-03-17T01:25:41.408Z,79.90
2023-03-17T01:28:16.964Z,79.95
2023-03-17T01:30:45.084Z,79.82
2023-03-17T01:33:12.976Z,80.05
2023-03-17T01:35:41.504Z,79.74
2023-03-17T01:38:08.714Z,80.11
2023-03-17T01:40:42.509Z,80.16
2023-03-17T01:43:09.070Z,80.31
2023-03-17T01:46:13.506Z,80.60
2023-03-17T01:49:09.444Z,80.96
2023-03-17T01:51:38.683Z,80.65
2023-03-17T01:54:10.691Z,80.04
2023-03-17T01:56:41.976Z,80.42
2023-03-17T01:59:13.671Z,80.55
2023-03-17T02:01:44.898Z,80.27
2023-03-17T02:04:12.016Z,81.39
2023-03-17T02:06:55.144Z,81.27
2023-03-17T02:09:24.095Z,82.23
2023-03-17T02:11:50.899Z,82.57
2023-03-17T02:14:17.838Z,81.85
2023-03-17T02:16:48.503Z,81.87
2023-03-17T02:19:16.756Z,81.25
2023-03-17T02:21:45.221Z,81.11
2023-03-17T02:24:21.946Z,81.19
2023-03-17T02:26:50.547Z,81.02
2023-03-17T02:29:18.774Z,81.41
2023-03-17T02:31:45.494Z,81.65
2023-03-17T02:34:12.175Z,81.69
2023-03-17T02:36:38.910Z,82.22
2023-03-17T02:39:05.626Z,82.27
2023-03-17T02:41:32.489Z,81.92
2023-03-17T02:43:59.315Z,81.97
2023-03-17T02:46:26.275Z,81.95
2023-03-17T02:48:54.221Z,81.01
2023-03-17T02:51:20.983Z,81.74
2023-03-17T02:53:47.672Z,82.20
2023-03-17T02:56:14.253Z,82.78
2023-03-17T02:58:40.865Z,82.22
2023-03-17T03:01:09.104Z,81.17
2023-03-17T03:03:36.293Z,80.23
2023-03-17T03:06:03.272Z,80.55
2023-03-17T03:08:30.337Z,80.88
2023-03-17T03:10:57.093Z,79.94
2023-03-17T03:13:23.684Z,79.94
2023-03-17T03:15:50.335Z,80.57
2023-03-17T03:18:17.000Z,79.94
2023-03-17T03:20:45.010Z,80.17
2023-03-17T03:23:12.008Z,80.39
2023-03-17T03:25:38.833Z,79.70
2023-03-17T03:28:08.054Z,79.18
2023-03-17T03:30:36.521Z,79.36
2023-03-17T03:33:04.039Z,78.62
2023-03-17T03:35:30.749Z,78.21
2023-03-17T03:37:57.409Z,78.93
2023-03-17T03:40:25.174Z,78.93
2023-03-17T03:42:51.755Z,79.32
2023-03-17T03:45:19.079Z,78.87
2023-03-17T03:47:45.629Z,78.13
2023-03-17T03:50:14.837Z,78.58
2023-03-17T03:52:41.563Z,78.58
2023-03-17T03:55:09.151Z,79.17
2023-03-17T03:57:36.798Z,78.98
2023-03-17T04:00:05.240Z,79.53
2023-03-17T04:02:38.521Z,79.37
2023-03-17T04:05:07.163Z,79.76
2023-03-17T04:07:33.752Z,79.67
2023-03-17T04:10:00.515Z,80.40
2023-03-17T04:12:27.099Z,81.08
2023-03-17T04:14:53.777Z,81.08
2023-03-17T04:17:20.307Z,82.07
2023-03-17T04:19:46.973Z,82.52
2023-03-17T04:22:13.690Z,82.16
2023-03-17T04:24:40.869Z,82.26
2023-03-17T04:27:08.016Z,83.25
2023-03-17T04:29:34.680Z,82.29
2023-03-17T04:32:03.581Z,81.47
2023-03-17T04:34:30.228Z,81.65
2023-03-17T04:36:56.893Z,82.34
2023-03-17T04:39:23.671Z,82.47
2023-03-17T04:41:50.566Z,82.91
2023-03-17T04:44:17.329Z,82.38
2023-03-17T04:46:43.905Z,83.71
2023-03-17T04:49:10.492Z,84.27
2023-03-17T04:51:39.831Z,83.49
2023-03-17T04:54:06.932Z,84.47
2023-03-17T04:56:33.586Z,83.40
2023-03-17T04:59:00.179Z,83.99
2023-03-17T05:01:27.070Z,84.75
2023-03-17T05:03:53.849Z,84.10
2023-03-17T05:06:20.444Z,83.89
2023-03-17T05:08:47.006Z,83.38
2023-03-17T05:11:14.340Z,83.61
2023-03-17T05:13:41.001Z,84.69
2023-03-17T05:16:08.982Z,84.00
2023-03-17T05:18:37.114Z,84.65
2023-03-17T05:21:06.197Z,84.52
2023-03-17T05:23:32.786Z,84.69
2023-03-17T05:25:59.376Z,85.03
2023-03-17T05:28:26.664Z,84.96
2023-03-17T05:30:53.637Z,85.18
2023-03-17T05:33:21.626Z,85.40
2023-03-17T05:35:48.384Z,85.59
2023-03-17T05:38:15.957Z,85.77
2023-03-17T05:40:43.385Z,85.93
2023-03-17T05:43:10.024Z,84.90
2023-03-17T05:45:37.141Z,84.44
2023-03-17T05:48:04.750Z,84.16
2023-03-17T05:50:31.748Z,83.82
2023-03-17T05:52:58.750Z,83.79
2023-03-17T05:55:25.741Z,83.58
2023-03-17T05:57:52.386Z,84.22
2023-03-17T06:00:20.937Z,83.63
2023-03-17T06:02:47.725Z,82.90
2023-03-17T06:05:14.275Z,81.89
2023-03-17T06:07:52.902Z,81.45
2023-03-17T06:10:19.988Z,82.22
2023-03-17T06:12:47.303Z,81.69
2023-03-17T06:15:14.005Z,82.01
2023-03-17T06:17:43.527Z,81.74
2023-03-17T06:20:11.826Z,83.01
2023-03-17T06:22:44.040Z,81.33
2023-03-17T06:25:15.598Z,81.12
2023-03-17T06:27:42.622Z,80.70
2023-03-17T06:30:12.374Z,79.01
2023-03-17T06:32:39.030Z,78.54
2023-03-17T06:35:07.280Z,77.87
2023-03-17T06:37:35.062Z,78.60
2023-03-17T06:40:01.800Z,78.94
2023-03-17T06:42:28.470Z,78.29
2023-03-17T06:44:55.597Z,79.03
2023-03-17T06:47:24.790Z,78.43
2023-03-17T06:49:53.555Z,77.68
2023-03-17T06:52:20.403Z,78.80
2023-03-17T06:54:47.032Z,78.45
2023-03-17T06:57:13.611Z,78.20
2023-03-17T06:59:40.392Z,77.31
2023-03-17T07:02:07.404Z,77.03
2023-03-17T07:04:37.399Z,76.46
2023-03-17T07:07:05.697Z,75.21
2023-03-17T07:09:34.418Z,76.64
2023-03-17T07:12:05.068Z,75.12
2023-03-17T07:14:33.858Z,74.20
2023-03-17T07:17:00.454Z,73.61
2023-03-17T07:19:27.285Z,72.46
2023-03-17T07:21:57.681Z,73.02
2023-03-17T07:24:25.200Z,71.81
2023-03-17T07:26:52.233Z,72.11
2023-03-17T07:29:18.823Z,71.94
2023-03-17T07:31:45.790Z,72.22
2023-03-17T07:34:12.789Z,71.18
2023-03-17T07:36:39.588Z,70.82
2023-03-17T07:39:06.537Z,71.21
2023-03-17T07:41:33.565Z,70.60
2023-03-17T07:44:00.639Z,69.49
2023-03-17T07:46:27.746Z,69.43
2023-03-17T07:48:54.546Z,69.50
2023-03-17T07:51:23.327Z,67.20
2023-03-17T07:53:53.066Z,67.39
2023-03-17T07:56:19.596Z,67.15
2023-03-17T07:58:46.147Z,66.30
2023-03-17T08:01:12.748Z,66.33
2023-03-17T08:03:41.261Z,65.55
2023-03-17T08:06:08.584Z,64.96
2023-03-17T08:08:35.468Z,62.88
2023-03-17T08:11:04.673Z,62.96
2023-03-17T08:13:32.635Z,63.66
2023-03-17T08:16:00.024Z,63.30
2023-03-17T08:18:27.038Z,62.15
2023-03-17T08:20:53.695Z,60.95
2023-03-17T08:23:20.591Z,59.52
2023-03-17T08:25:47.987Z,60.16
2023-03-17T08:28:15.432Z,60.95
2023-03-17T08:30:43.240Z,59.33
2023-03-17T08:33:10.013Z,59.49
2023-03-17T08:35:37.385Z,59.43
2023-03-17T08:38:04.550Z,58.14
2023-03-17T08:40:31.714Z,57.32
2023-03-17T08:42:58.518Z,57.37
2023-03-17T08:45:25.144Z,57.36
2023-03-17T08:47:52.462Z,57.06
2023-03-17T08:50:22.310Z,57.03
2023-03-17T08:52:51.468Z,56.38
2023-03-17T08:55:19.372Z,55.76
2023-03-17T08:57:46.861Z,55.26
2023-03-17T09:00:20.148Z,56.36
2023-03-17T09:02:48.653Z,55.36
2023-03-17T09:05:17.050Z,57.21
2023-03-17T09:07:43.976Z,55.39
2023-03-17T09:10:12.691Z,55.33
2023-03-17T09:12:41.249Z,55.18
2023-03-17T09:15:09.271Z,55.24
2023-03-17T09:17:35.995Z,54.69
2023-03-17T09:20:02.880Z,54.33
2023-03-17T09:22:29.555Z,54.04
2023-03-17T09:24:56.066Z,55.07
2023-03-17T09:27:22.691Z,54.58
2023-03-17T09:29:49.652Z,54.84
2023-03-17T09:32:16.445Z,55.12
2023-03-17T09:34:43.038Z,53.08
2023-03-17T09:37:09.905Z,53.59
2023-03-17T09:39:36.562Z,52.97
2023-03-17T09:42:08.954Z,53.33
2023-03-17T09:45:06.861Z,52.10
2023-03-17T09:47:36.586Z,52.53
2023-03-17T09:50:12.267Z,52.16
2023-03-17T09:52:38.961Z,51.86
2023-03-17T09:55:09.342Z,51.90
2023-03-17T09:57:38.472Z,51.03
2023-03-17T10:00:18.376Z,50.95
2023-03-17T10:02:45.619Z,51.03
2023-03-17T10:05:26.084Z,51.44
2023-03-17T10:08:31.341Z,50.55
2023-03-17T10:11:36.937Z,50.62
2023-03-17T10:14:12.638Z,49.41
2023-03-17T10:16:54.652Z,49.46
2023-03-17T10:19:46.211Z,50.38
2023-03-17T10:22:30.323Z,49.78
2023-03-17T10:25:07.472Z,49.43
2023-03-17T10:27:37.334Z,49.57
2023-03-17T10:30:13.631Z,50.14
2023-03-17T10:32:43.908Z,48.78
2023-03-17T10:35:15.508Z,49.01
2023-03-17T10:37:43.984Z,48.32
2023-03-17T10:40:23.382Z,49.44
2023-03-17T10:43:03.785Z,48.95
2023-03-17T10:45:33.256Z,48.74
2023-03-17T10:48:01.570Z,47.81
2023-03-17T10:50:35.049Z,47.83
2023-03-17T10:53:08.068Z,48.14
2023-03-17T10:55:42.620Z,47.64
2023-03-17T10:58:18.606Z,47.42
2023-03-17T11:00:56.690Z,46.94
2023-03-17T11:03:27.451Z,45.65
2023-03-17T11:06:02.517Z,46.25
2023-03-17T11:08:46.769Z,48.51
2023-03-17T11:11:34.723Z,44.87
2023-03-17T11:14:19.013Z,46.23
2023-03-17T11:16:58.069Z,45.68
2023-03-17T11:19:37.428Z,43.90
2023-03-17T11:22:25.776Z,45.06
2023-03-17T11:25:04.624Z,46.58
2023-03-17T11:27:35.162Z,45.56
2023-03-17T11:30:23.489Z,44.25
2023-03-17T11:33:05.607Z,44.05
2023-03-17T11:35:50.153Z,43.88
2023-03-17T11:38:21.760Z,43.66
2023-03-17T11:41:06.863Z,43.54
2023-03-17T11:43:54.556Z,43.98
2023-03-17T11:46:34.212Z,43.46
2023-03-17T11:49:10.879Z,42.82
2023-03-17T11:52:03.223Z,43.25
2023-03-17T11:54:36.148Z,43.31
2023-03-17T11:57:12.924Z,42.76
2023-03-17T11:59:44.468Z,43.16
2023-03-17T12:02:28.591Z,43.78
2023-03-17T12:05:17.426Z,43.41
2023-03-17T12:07:51.270Z,43.33
2023-03-17T12:10:25.579Z,44.34
2023-03-17T12:13:01.653Z,43.28
2023-03-17T12:15:30.745Z,43.56
2023-03-17T12:18:18.243Z,43.24
2023-03-17T12:20:55.478Z,43.04
2023-03-17T12:23:34.019Z,42.81
2023-03-17T12:26:07.177Z,41.87
2023-03-17T12:28:49.315Z,42.28
2023-03-17T12:31:22.792Z,41.33
2023-03-17T12:34:07.878Z,41.40
2023-03-17T12:36:36.740Z,40.69
2023-03-17T12:39:28.079Z,41.03
2023-03-17T12:42:13.546Z,41.28
2023-03-17T12:45:18.684Z,41.28
2023-03-17T12:48:00.556Z,41.25
2023-03-17T12:50:55.298Z,40.74
2023-03-17T12:53:31.558Z,40.68
2023-03-17T12:56:09.255Z,40.76
2023-03-17T12:58:39.551Z,41.75
2023-03-17T13:01:33.758Z,40.96
2023-03-17T13:04:07.114Z,41.34
2023-03-17T13:06:40.617Z,42.18
2023-03-17T13:09:27.864Z,41.93
2023-03-17T13:11:55.721Z,42.16
2023-03-17T13:14:36.055Z,42.18
2023-03-17T13:17:11.944Z,42.54
2023-03-17T13:19:56.649Z,42.11
2023-03-17T13:22:33.112Z,42.10
2023-03-17T13:25:33.467Z,42.33
2023-03-17T13:28:47.625Z,41.80
2023-03-17T13:31:20.278Z,42.52
2023-03-17T13:33:53.218Z,41.47
2023-03-17T13:36:36.742Z,41.09
2023-03-17T13:39:31.152Z,42.18
2023-03-17T13:42:29.970Z,41.84
2023-03-17T13:45:23.951Z,41.54
2023-03-17T13:47:52.622Z,43.02
2023-03-17T13:50:31.966Z,42.49
2023-03-17T13:53:03.479Z,42.62
2023-03-17T13:55:40.833Z,43.01
2023-03-17T13:58:10.891Z,42.66
2023-03-17T14:00:41.379Z,42.38
2023-03-17T14:03:47.377Z,43.36
2023-03-17T14:06:15.035Z,42.19
2023-03-17T14:08:46.435Z,42.85
2023-03-17T14:11:23.741Z,42.09
2023-03-17T14:14:07.857Z,42.34
2023-03-17T14:16:47.108Z,42.27
2023-03-17T14:19:20.095Z,42.02
2023-03-17T14:21:47.241Z,42.63
2023-03-17T14:24:23.439Z,42.85
2023-03-17T14:26:51.799Z,42.20
2023-03-17T14:29:32.436Z,42.06
2023-03-17T14:32:04.126Z,42.51
2023-03-17T14:34:30.807Z,42.58
2023-03-17T14:37:04.393Z,42.17
2023-03-17T14:39:31.162Z,42.27
2023-03-17T14:42:04.716Z,42.73
2023-03-17T14:44:42.983Z,42.41
2023-03-17T14:47:23.217Z,42.79
2023-03-17T14:49:53.215Z,43.03
2023-03-17T14:52:23.806Z,42.73
2023-03-17T14:54:53.539Z,42.47
2023-03-17T14:57:31.330Z,42.79
2023-03-17T15:00:34.051Z,43.51
2023-03-17T15:03:05.806Z,43.88
2023-03-17T15:05:40.246Z,44.95
2023-03-17T15:08:34.021Z,46.55
2023-03-17T15:11:04.908Z,46.56
2023-03-17T15:13:35.774Z,46.17
2023-03-17T15:16:15.046Z,46.71
2023-03-17T15:18:42.107Z,46.79
2023-03-17T15:21:32.367Z,47.50
2023-03-17T15:24:04.931Z,46.61
2023-03-17T15:26:31.821Z,47.04
2023-03-17T15:29:00.402Z,47.95
2023-03-17T15:31:30.029Z,48.13
2023-03-17T15:33:57.828Z,47.76
2023-03-17T15:36:32.406Z,48.78
2023-03-17T15:39:01.062Z,48.77
2023-03-17T15:41:28.000Z,49.42
2023-03-17T15:43:54.624Z,49.43
2023-03-17T15:46:31.986Z,49.36
2023-03-17T15:48:58.799Z,48.74
2023-03-17T15:51:25.508Z,49.11
2023-03-17T15:53:52.201Z,49.93
2023-03-17T15:56:21.532Z,50.19
2023-03-17T15:58:51.459Z,49.72
2023-03-17T16:01:18.743Z,50.32
2023-03-17T16:03:47.097Z,50.73
2023-03-17T16:06:22.371Z,50.49
2023-03-17T16:08:50.553Z,50.50
2023-03-17T16:11:19.411Z,50.64
2023-03-17T16:13:47.562Z,51.14
2023-03-17T16:16:22.542Z,50.73
2023-03-17T16:18:51.550Z,51.47
2023-03-17T16:21:19.204Z,51.86
2023-03-17T16:23:46.817Z,51.59
2023-03-17T16:26:16.166Z,52.10
2023-03-17T16:28:46.087Z,52.62
2023-03-17T16:31:18.061Z,52.69
2023-03-17T16:33:45.144Z,53.05
2023-03-17T16:36:17.047Z,52.99
2023-03-17T16:38:44.068Z,53.61
2023-03-17T16:41:20.515Z,53.68
2023-03-17T16:43:51.253Z,53.47
2023-03-17T16:46:19.785Z,54.27
2023-03-17T16:48:48.266Z,54.40
2023-03-17T16:51:15.215Z,54.34
2023-03-17T16:53:41.786Z,54.95
2023-03-17T16:56:20.512Z,55.38
2023-03-17T16:58:47.992Z,54.97
2023-03-17T17:01:24.947Z,54.93
2023-03-17T17:03:52.310Z,55.00
2023-03-17T17:06:19.882Z,54.99
2023-03-17T17:08:47.387Z,55.76
2023-03-17T17:11:15.145Z,56.75
2023-03-17T17:13:43.501Z,56.70
2023-03-17T17:16:19.297Z,56.91
2023-03-17T17:18:47.255Z,57.04
2023-03-17T17:21:14.253Z,56.74
2023-03-17T17:23:40.882Z,56.68
2023-03-17T17:26:07.803Z,57.34
2023-03-17T17:28:34.549Z,57.25
2023-03-17T17:31:01.565Z,57.89
2023-03-17T17:33:28.204Z,57.77
2023-03-17T17:35:54.911Z,57.96
2023-03-17T17:38:26.290Z,57.70
2023-03-17T17:40:54.268Z,57.69
2023-03-17T17:43:21.184Z,58.77
2023-03-17T17:45:48.620Z,58.82
2023-03-17T17:48:17.138Z,58.55
2023-03-17T17:50:44.191Z,58.35
2023-03-17T17:53:12.335Z,58.15
2023-03-17T17:55:40.463Z,57.69
2023-03-17T17:58:07.270Z,58.37
2023-03-17T18:00:33.993Z,58.34
2023-03-17T18:03:00.638Z,57.58
2023-03-17T18:05:28.109Z,56.23
2023-03-17T18:07:55.203Z,56.46
2023-03-17T18:10:25.764Z,57.36
2023-03-17T18:12:53.444Z,56.77
2023-03-17T18:15:21.896Z,56.46
2023-03-17T18:17:49.194Z,55.88
2023-03-17T18:20:18.392Z,55.76
2023-03-17T18:22:45.052Z,55.26
2023-03-17T18:25:23.099Z,55.65
2023-03-17T18:27:53.100Z,55.21
2023-03-17T18:30:26.615Z,55.27
2023-03-17T18:32:57.079Z,56.06
2023-03-17T18:35:27.051Z,55.54
2023-03-17T18:38:11.410Z,55.42
2023-03-17T18:41:11.365Z,55.14
2023-03-17T18:43:51.296Z,54.29
2023-03-17T18:46:26.937Z,54.28
2023-03-17T18:48:53.465Z,54.81
2023-03-17T18:51:20.483Z,54.33
2023-03-17T18:53:47.242Z,54.76
2023-03-17T18:56:14.681Z,54.31
2023-03-17T18:58:41.276Z,55.08
2023-03-17T19:01:07.943Z,55.93
2023-03-17T19:03:35.221Z,57.89
2023-03-17T19:06:14.652Z,57.88
2023-03-17T19:08:41.920Z,57.79
2023-03-17T19:11:10.926Z,58.71
2023-03-17T19:13:38.444Z,57.88
2023-03-17T19:16:07.515Z,58.64
2023-03-17T19:18:35.553Z,58.29
2023-03-17T19:21:04.513Z,58.69
2023-03-17T19:23:32.224Z,58.65
2023-03-17T19:25:59.570Z,58.38
2023-03-17T19:28:26.226Z,59.05
2023-03-17T19:30:52.811Z,59.85
2023-03-17T19:33:19.361Z,60.22
2023-03-17T19:35:45.993Z,63.09
2023-03-17T19:38:12.626Z,66.20
2023-03-17T19:40:39.276Z,68.31
2023-03-17T19:43:06.708Z,71.37
2023-03-17T19:45:33.520Z,72.35
2023-03-17T19:48:00.209Z,69.21
2023-03-17T19:50:26.972Z,70.91
2023-03-17T19:52:54.154Z,72.75
2023-03-17T19:55:21.535Z,73.16
2023-03-17T19:57:48.987Z,74.43
2023-03-17T20:00:20.846Z,77.01
2023-03-17T20:02:47.588Z,78.02
2023-03-17T20:05:15.132Z,77.00
2023-03-17T20:07:42.585Z,76.11
2023-03-17T20:10:10.711Z,76.33
2023-03-17T20:12:38.455Z,77.71
2023-03-17T20:15:06.927Z,76.46
2023-03-17T20:17:34.218Z,76.31
2023-03-17T20:20:01.333Z,76.01
2023-03-17T20:22:27.943Z,75.58
2023-03-17T20:24:54.478Z,75.35
2023-03-17T20:27:21.158Z,75.85
2023-03-17T20:29:48.514Z,74.32
2023-03-17T20:32:15.101Z,74.34
2023-03-17T20:34:43.332Z,74.41
2023-03-17T20:37:11.731Z,73.06
2023-03-17T20:39:38.266Z,72.30
2023-03-17T20:42:09.971Z,70.88
2023-03-17T20:44:37.606Z,71.56
2023-03-17T20:47:04.363Z,71.96
2023-03-17T20:49:31.672Z,71.03
2023-03-17T20:51:58.479Z,71.95
2023-03-17T20:54:25.199Z,71.64
2023-03-17T20:56:56.524Z,70.83
2023-03-17T20:59:24.681Z,70.75
2023-03-17T21:01:52.042Z,70.57
2023-03-17T21:04:21.134Z,69.98
2023-03-17T21:06:48.486Z,69.59
2023-03-17T21:09:15.016Z,70.20
2023-03-17T21:11:41.621Z,70.31
2023-03-17T21:14:08.982Z,69.90
2023-03-17T21:16:36.244Z,71.04
2023-03-17T21:19:02.933Z,70.54
2023-03-17T21:21:29.651Z,70.54
2023-03-17T21:23:56.288Z,70.50
2023-03-17T21:26:22.897Z,69.49
2023-03-17T21:28:50.423Z,69.49
2023-03-17T21:31:17.202Z,69.80
2023-03-17T21:33:44.718Z,69.60
2023-03-17T21:36:11.587Z,70.17
2023-03-17T21:38:38.874Z,68.51
2023-03-17T21:41:22.248Z,66.96
2023-03-17T21:43:50.435Z,66.44
2023-03-17T21:46:17.193Z,66.66
2023-03-17T21:48:44.199Z,66.85
2023-03-17T21:51:11.298Z,68.29
2023-03-17T21:53:38.008Z,66.52
2023-03-17T21:56:04.934Z,66.90
2023-03-17T21:58:31.546Z,65.89
2023-03-17T22:01:00.249Z,66.74
2023-03-17T22:03:26.912Z,66.07
2023-03-17T22:05:53.491Z,67.45
2023-03-17T22:08:20.537Z,66.38
2023-03-17T22:10:47.299Z,66.33
2023-03-17T22:13:13.831Z,66.12
2023-03-17T22:15:40.911Z,65.95
2023-03-17T22:18:07.506Z,66.60
2023-03-17T22:20:34.358Z,65.79
2023-03-17T22:23:01.604Z,66.52
2023-03-17T22:25:28.181Z,67.60
2023-03-17T22:27:54.879Z,67.73
2023-03-17T22:30:21.903Z,68.79
2023-03-17T22:32:48.893Z,68.52
2023-03-17T22:35:15.944Z,69.99
2023-03-17T22:37:43.298Z,70.33
2023-03-17T22:40:13.848Z,71.64
2023-03-17T22:42:40.559Z,72.17
2023-03-17T22:45:08.474Z,72.51
2023-03-17T22:47:35.053Z,72.47
2023-03-17T22:50:01.643Z,73.48
2023-03-17T22:52:28.241Z,74.05
2023-03-17T22:54:54.823Z,75.44
2023-03-17T22:57:21.453Z,76.27
2023-03-17T22:59:48.023Z,76.60
2023-03-17T23:02:18.388Z,77.32
2023-03-17T23:04:45.452Z,78.04
2023-03-17T23:07:12.030Z,78.86
2023-03-17T23:09:40.431Z,78.07
2023-03-17T23:12:07.970Z,78.94
2023-03-17T23:14:38.085Z,79.82
2023-03-17T23:17:05.963Z,80.25
2023-03-17T23:19:32.745Z,80.21
2023-03-17T23:21:59.357Z,81.56
2023-03-17T23:24:25.904Z,82.41
2023-03-17T23:26:52.483Z,83.97
2023-03-17T23:29:19.051Z,85.04
2023-03-17T23:31:46.624Z,87.75
2023-03-17T23:34:13.231Z,88.37
2023-03-17T23:36:40.197Z,88.47
2023-03-17T23:39:08.208Z,89.96
2023-03-17T23:41:34.759Z,91.81
2023-03-17T23:44:01.356Z,91.89
2023-03-17T23:46:28.941Z,92.34
2023-03-17T23:48:55.553Z,94.06
2023-03-17T23:51:22.359Z,94.26
2023-03-17T23:53:50.489Z,95.15
2023-03-17T23:56:17.378Z,94.91
2023-03-17T23:58:44.022Z,95.30
